createdAt,value
2018-05-17T02:42:48.912Z,3
2018-05-17T02:54:19.619Z,7
2018-05-17T02:56:49.731Z,10
2018-05-17T02:59:19.933Z,13
2018-05-17T03:01:20.065Z,17
2018-05-17T03:03:20.154Z,20
2018-05-17T03:04:50.252Z,23
2018-05-17T03:06:20.344Z,27
2018-05-17T03:07:50.482Z,30
2018-05-17T03:08:50.540Z,33
2018-05-17T03:09:50.631Z,37
2018-05-17T03:10:20.585Z,40
2018-05-17T03:10:50.647Z,43
2018-05-17T03:11:20.631Z,47
2018-05-17T03:11:50.728Z,50
2018-05-17T03:12:50.790Z,57
2018-05-17T03:13:50.848Z,60
2018-05-17T03:14:20.820Z,63
2018-05-17T03:14:50.898Z,67
2018-05-17T03:15:20.870Z,70
2018-05-17T03:15:50.990Z,73
2018-05-17T03:17:21.034Z,77
2018-05-17T03:18:21.108Z,80
2018-05-17T03:18:51.165Z,83
2018-05-17T03:19:21.187Z,90
2018-05-17T03:19:51.231Z,93
2018-05-17T03:20:51.320Z,97
2018-05-17T03:21:21.281Z,100
2018-05-17T03:22:21.299Z,103
2018-05-17T03:22:51.388Z,117
2018-05-17T03:23:21.394Z,120
2018-05-17T03:23:51.474Z,117
2018-05-17T03:24:21.500Z,130
2018-05-17T03:24:51.508Z,133
2018-05-17T03:25:21.551Z,143
2018-05-17T03:25:51.628Z,150
2018-05-17T03:26:21.579Z,157
2018-05-17T03:26:51.619Z,163
2018-05-17T03:27:21.653Z,170
2018-05-17T03:27:51.692Z,173
2018-05-17T03:28:21.740Z,180
2018-05-17T03:28:51.760Z,190
2018-05-17T03:29:21.762Z,183
2018-05-17T03:29:52.028Z,193
2018-05-17T03:30:22.038Z,213
2018-05-17T03:30:52.055Z,220
2018-05-17T03:31:22.081Z,223
2018-05-17T03:31:52.196Z,230
2018-05-17T03:32:22.184Z,253
2018-05-17T03:32:52.170Z,280
2018-05-17T03:33:22.236Z,297
2018-05-17T03:33:52.272Z,307
2018-05-17T03:34:22.309Z,303
2018-05-17T03:35:22.413Z,300
2018-05-17T03:35:52.381Z,310
2018-05-17T03:36:22.434Z,323
2018-05-17T03:36:52.461Z,337
2018-05-17T03:37:22.489Z,353
2018-05-17T03:37:52.507Z,367
2018-05-17T03:38:22.532Z,380
2018-05-17T03:38:52.619Z,400
2018-05-17T03:39:22.650Z,423
2018-05-17T03:39:52.662Z,440
2018-05-17T03:40:22.790Z,470
2018-05-17T03:40:52.684Z,467
2018-05-17T03:41:22.692Z,497
2018-05-17T03:41:52.810Z,493
2018-05-17T03:42:22.778Z,510
2018-05-17T03:42:52.793Z,520
2018-05-17T03:43:22.814Z,537
2018-05-17T03:43:52.852Z,543
2018-05-17T03:44:22.927Z,563
2018-05-17T03:44:52.912Z,580
2018-05-17T03:45:22.944Z,567
2018-05-17T03:45:53.008Z,587
2018-05-17T03:46:53.063Z,617
2018-05-17T03:47:23.136Z,640
2018-05-17T03:47:53.135Z,653
2018-05-17T03:48:23.218Z,647
2018-05-17T03:48:53.155Z,650
2018-05-17T03:49:23.257Z,667
2018-05-17T03:49:53.218Z,713
2018-05-17T03:50:23.299Z,700
2018-05-17T03:50:53.289Z,733
2018-05-17T03:51:23.308Z,777
2018-05-17T03:51:53.400Z,787
2018-05-17T03:52:23.413Z,783
2018-05-17T03:52:53.431Z,763
2018-05-17T03:53:23.455Z,807
2018-05-17T03:53:53.493Z,813
2018-05-17T03:54:23.537Z,807
2018-05-17T03:54:53.609Z,823
2018-05-17T03:55:23.627Z,837
2018-05-17T03:55:53.664Z,877
2018-05-17T03:56:23.654Z,907
2018-05-17T03:56:53.793Z,957
2018-05-17T03:57:23.726Z,997
2018-05-17T03:57:53.775Z,1000
2018-05-17T03:58:23.789Z,1017
2018-05-17T03:58:53.797Z,1030
2018-05-17T03:59:23.803Z,1010
2018-05-17T03:59:53.896Z,1013
2018-05-17T04:00:23.914Z,990
2018-05-17T04:00:53.959Z,973
2018-05-17T04:01:23.961Z,983
2018-05-17T04:01:54.077Z,1040
2018-05-17T04:02:24.071Z,1107
2018-05-17T04:02:54.086Z,1067
2018-05-17T04:03:24.077Z,1127
2018-05-17T04:03:54.143Z,1200
2018-05-17T04:04:24.115Z,1193
2018-05-17T04:05:24.229Z,1200
2018-05-17T04:05:54.212Z,1270
2018-05-17T04:06:24.289Z,1320
2018-05-17T04:06:54.369Z,1343
2018-05-17T04:07:24.343Z,1317
2018-05-17T04:07:54.403Z,1313
2018-05-17T04:08:24.395Z,1413
2018-05-17T04:08:54.425Z,1483
2018-05-17T04:09:24.460Z,1513
2018-05-17T04:09:54.541Z,1517
2018-05-17T04:10:24.550Z,1573
2018-05-17T04:10:54.602Z,1593
2018-05-17T04:11:24.576Z,1623
2018-05-17T04:11:54.879Z,1600
2018-05-17T04:12:24.644Z,1660
2018-05-17T04:12:54.678Z,1723
2018-05-17T04:13:24.709Z,1813
2018-05-17T04:13:54.826Z,1883
2018-05-17T04:14:24.773Z,1833
2018-05-17T04:14:54.816Z,1830
2018-05-17T04:15:24.835Z,1793
2018-05-17T04:15:54.874Z,1760
2018-05-17T04:16:24.887Z,1667
2018-05-17T04:16:54.942Z,1677
2018-05-17T04:17:24.953Z,1713
2018-05-17T04:17:54.995Z,1880
2018-05-17T04:18:25.022Z,1943
2018-05-17T04:18:55.049Z,1920
2018-05-17T04:19:25.065Z,1867
2018-05-17T04:19:55.096Z,1953
2018-05-17T04:20:25.128Z,1940
2018-05-17T04:20:55.174Z,1843
2018-05-17T04:21:25.212Z,1920
2018-05-17T04:21:55.215Z,1990
2018-05-17T04:22:25.221Z,1953
2018-05-17T04:22:55.252Z,1937
2018-05-17T04:23:25.342Z,2060
2018-05-17T04:23:55.323Z,2057
2018-05-17T04:24:25.340Z,2120
2018-05-17T04:24:55.384Z,2103
2018-05-17T04:25:25.452Z,2027
2018-05-17T04:25:55.463Z,2157
2018-05-17T04:26:25.528Z,2173
2018-05-17T04:26:55.575Z,2273
2018-05-17T04:27:25.539Z,2340
2018-05-17T04:27:55.572Z,2353
2018-05-17T04:28:28.478Z,2517
2018-05-17T04:28:55.691Z,2373
2018-05-17T04:29:25.703Z,2347
2018-05-17T04:29:55.690Z,2367
2018-05-17T04:30:25.747Z,2393
2018-05-17T04:30:55.752Z,2430
2018-05-17T04:31:25.784Z,2620
2018-05-17T04:31:55.881Z,2780
2018-05-17T04:32:25.854Z,2823
2018-05-17T04:32:55.875Z,2860
2018-05-17T04:33:25.901Z,2813
2018-05-17T04:33:55.942Z,2790
2018-05-17T04:34:25.963Z,2763
2018-05-17T04:34:56.013Z,2670
2018-05-17T04:35:26.036Z,2650
2018-05-17T04:35:56.069Z,2730
2018-05-17T04:36:26.090Z,2773
2018-05-17T04:36:56.191Z,2763
2018-05-17T04:37:26.197Z,2773
2018-05-17T04:37:56.199Z,2720
2018-05-17T04:38:26.237Z,2653
2018-05-17T04:38:56.263Z,2640
2018-05-17T04:39:26.315Z,2733
2018-05-17T04:39:56.345Z,2837
2018-05-17T04:40:26.469Z,2983
2018-05-17T04:40:56.386Z,2990
2018-05-17T04:41:26.436Z,2967
2018-05-17T04:41:56.491Z,2973
2018-05-17T04:42:26.490Z,3037
2018-05-17T04:42:56.513Z,3157
2018-05-17T04:43:26.613Z,3237
2018-05-17T04:43:56.579Z,3150
2018-05-17T04:44:26.625Z,3037
2018-05-17T04:44:56.614Z,3003
2018-05-17T04:45:26.682Z,2710
2018-05-17T04:45:56.707Z,2833
2018-05-17T04:46:26.779Z,2997
2018-05-17T04:46:56.783Z,2813
2018-05-17T04:47:26.803Z,2890
2018-05-17T04:47:56.830Z,2947
2018-05-17T04:48:26.868Z,3107
2018-05-17T04:48:56.914Z,3317
2018-05-17T04:49:26.885Z,3283
2018-05-17T04:49:56.948Z,3123
2018-05-17T04:50:26.998Z,3230
2018-05-17T04:50:57.029Z,3400
2018-05-17T04:51:27.075Z,3517
2018-05-17T04:51:57.131Z,3690
2018-05-17T04:52:27.111Z,3730
2018-05-17T04:52:57.159Z,3950
2018-05-17T04:53:27.218Z,3747
2018-05-17T04:53:57.196Z,3567
2018-05-17T04:54:27.285Z,3703
2018-05-17T04:54:57.259Z,3790
2018-05-17T04:55:27.320Z,3840
2018-05-17T04:55:57.311Z,3947
2018-05-17T04:56:27.349Z,4510
2018-05-17T04:56:57.399Z,4333
2018-05-17T04:57:27.404Z,4180
2018-05-17T04:57:57.439Z,3953
2018-05-17T04:58:27.518Z,3887
2018-05-17T04:58:57.467Z,4027
2018-05-17T04:59:27.598Z,4113
2018-05-17T04:59:57.555Z,3900
2018-05-17T05:00:27.612Z,4010
2018-05-17T05:00:57.625Z,3850
2018-05-17T05:01:27.624Z,3990
2018-05-17T05:01:57.682Z,4200
2018-05-17T05:02:27.800Z,3950
2018-05-17T05:02:57.780Z,4020
2018-05-17T05:03:27.800Z,3993
2018-05-17T05:03:57.811Z,3920
2018-05-17T05:04:27.847Z,4150
2018-05-17T05:04:57.837Z,4210
2018-05-17T05:05:27.869Z,4080
2018-05-17T05:05:57.920Z,4187
2018-05-17T05:06:27.924Z,4310
2018-05-17T05:06:58.029Z,4153
2018-05-17T05:07:28.119Z,4033
2018-05-17T05:07:58.095Z,4010
2018-05-17T05:08:28.153Z,3770
2018-05-17T05:08:58.155Z,3843
2018-05-17T05:09:28.271Z,4000
2018-05-17T05:09:58.214Z,4220
2018-05-17T05:10:28.258Z,4160
2018-05-17T05:10:58.291Z,4167
2018-05-17T05:11:28.250Z,4290
2018-05-17T05:11:58.271Z,4387
2018-05-17T05:12:28.378Z,4563
2018-05-17T05:12:58.398Z,4917
2018-05-17T05:13:28.423Z,4720
2018-05-17T05:13:58.481Z,4640
2018-05-17T05:14:28.450Z,4383
2018-05-17T05:14:58.481Z,4240
2018-05-17T05:15:28.504Z,4360
2018-05-17T05:15:58.588Z,4427
2018-05-17T05:16:28.548Z,4347
2018-05-17T05:16:58.608Z,4373
2018-05-17T05:17:28.681Z,4253
2018-05-17T05:17:58.691Z,4123
2018-05-17T05:18:28.700Z,4157
2018-05-17T05:18:58.714Z,4130
2018-05-17T05:19:28.756Z,4267
2018-05-17T05:19:58.769Z,4157
2018-05-17T05:20:28.890Z,4053
2018-05-17T05:20:58.851Z,4020
2018-05-17T05:21:28.861Z,4053
2018-05-17T05:21:58.888Z,4257
2018-05-17T05:22:28.945Z,4297
2018-05-17T05:22:58.958Z,4270
2018-05-17T05:23:28.990Z,4133
2018-05-17T05:23:59.023Z,4090
2018-05-17T05:24:29.085Z,4177
2018-05-17T05:24:59.105Z,4563
2018-05-17T05:25:29.160Z,4530
2018-05-17T05:25:59.135Z,4523
2018-05-17T05:26:29.204Z,4647
2018-05-17T05:26:59.191Z,4483
2018-05-17T05:27:29.278Z,4203
2018-05-17T05:27:59.308Z,4223
2018-05-17T05:28:29.372Z,4113
2018-05-17T05:28:59.399Z,3737
2018-05-17T05:29:29.386Z,3587
2018-05-17T05:29:59.456Z,3787
2018-05-17T05:30:29.477Z,3920
2018-05-17T05:30:59.503Z,3763
2018-05-17T05:31:29.545Z,3433
2018-05-17T05:31:59.560Z,3603
2018-05-17T05:32:29.602Z,3787
2018-05-17T05:32:59.602Z,3950
2018-05-17T05:33:29.642Z,4297
2018-05-17T05:33:59.660Z,4667
2018-05-17T05:34:29.746Z,4537
2018-05-17T05:34:59.685Z,4433
2018-05-17T05:35:29.813Z,4257
2018-05-17T05:35:59.784Z,4433
2018-05-17T05:36:29.824Z,4460
2018-05-17T05:36:59.900Z,4220
2018-05-17T05:37:29.926Z,4377
2018-05-17T05:37:59.916Z,4390
2018-05-17T05:38:29.937Z,4480
2018-05-17T05:38:59.971Z,4693
2018-05-17T05:39:29.983Z,4743
2018-05-17T05:40:00.034Z,4433
2018-05-17T05:40:30.085Z,4367
2018-05-17T05:41:00.080Z,4210
2018-05-17T05:41:30.147Z,4037
2018-05-17T05:42:00.166Z,3817
2018-05-17T05:42:30.187Z,3880
2018-05-17T05:43:00.234Z,3927
2018-05-17T05:43:30.257Z,4027
2018-05-17T05:44:01.474Z,4063
2018-05-17T05:44:30.297Z,4243
2018-05-17T05:45:02.031Z,4447
2018-05-17T05:45:30.377Z,4500
2018-05-17T05:46:00.908Z,4420
2018-05-17T05:46:30.421Z,4157
2018-05-17T05:47:00.830Z,4183
2018-05-17T05:47:30.455Z,4060
2018-05-17T05:48:01.789Z,4143
2018-05-17T05:48:30.551Z,4363
2018-05-17T05:49:01.737Z,4310
2018-05-17T05:49:30.684Z,4220
2018-05-17T05:50:01.827Z,4140
2018-05-17T05:51:01.493Z,4167
2018-05-17T05:52:00.995Z,4203
2018-05-17T05:52:30.767Z,4253
2018-05-17T05:53:01.588Z,4470
2018-05-17T05:53:30.853Z,4597
2018-05-17T05:54:00.886Z,4730
2018-05-17T05:54:30.910Z,4780
2018-05-17T05:55:01.539Z,4923
2018-05-17T05:55:31.045Z,4927
2018-05-17T05:56:02.032Z,5013
2018-05-17T05:56:31.034Z,5047
2018-05-17T05:57:01.740Z,5100
2018-05-17T05:57:31.072Z,5257
2018-05-17T05:58:01.102Z,5360
2018-05-17T05:58:31.172Z,5283
2018-05-17T05:59:02.062Z,5290
2018-05-17T05:59:31.228Z,5470
2018-05-17T06:00:01.736Z,5443
2018-05-17T06:00:31.283Z,5480
2018-05-17T06:01:01.348Z,5683
2018-05-17T06:01:31.400Z,5790
2018-05-17T06:02:01.625Z,5713
2018-05-17T06:03:01.720Z,5827
2018-05-17T06:03:31.471Z,5750
2018-05-17T06:04:01.468Z,6000
2018-05-17T06:04:31.521Z,6153
2018-05-17T06:05:01.530Z,6143
2018-05-17T06:05:31.605Z,6623
2018-05-17T06:06:01.678Z,7063
2018-05-17T06:06:31.638Z,7333
2018-05-17T06:07:01.696Z,7627
2018-05-17T06:07:31.688Z,8077
2018-05-17T06:08:01.770Z,8140
2018-05-17T06:08:31.751Z,7570
2018-05-17T06:09:01.856Z,6983
2018-05-17T06:09:31.814Z,6717
2018-05-17T06:10:01.849Z,7253
2018-05-17T06:10:31.901Z,7947
2018-05-17T06:11:01.909Z,8190
2018-05-17T06:11:31.929Z,7793
2018-05-17T06:12:01.969Z,6913
2018-05-17T06:12:32.008Z,6360
2018-05-17T06:13:02.193Z,5733
2018-05-17T06:13:32.052Z,5413
2018-05-17T06:14:02.089Z,5407
2018-05-17T06:14:32.121Z,5203
2018-05-17T06:15:02.280Z,4947
2018-05-17T06:15:32.197Z,4870
2018-05-17T06:16:02.206Z,4600
2018-05-17T06:16:32.248Z,4387
2018-05-17T06:17:02.310Z,4310
2018-05-17T06:17:32.349Z,4443
2018-05-17T06:18:02.397Z,4803
2018-05-17T06:18:32.432Z,5120
2018-05-17T06:19:02.440Z,5857
2018-05-17T06:19:32.459Z,5907
2018-05-17T06:20:02.532Z,5200
2018-05-17T06:20:32.536Z,5150
2018-05-17T06:21:32.645Z,5297
2018-05-17T06:22:02.631Z,5080
2018-05-17T06:22:32.690Z,4897
2018-05-17T06:23:02.688Z,5053
2018-05-17T06:23:32.694Z,5317
2018-05-17T06:24:02.747Z,5337
2018-05-17T06:24:32.768Z,5217
2018-05-17T06:25:02.877Z,5237
2018-05-17T06:25:32.816Z,5477
2018-05-17T06:26:02.888Z,5507
2018-05-17T06:26:32.873Z,5683
2018-05-17T06:27:02.955Z,6030
2018-05-17T06:27:32.962Z,6770
2018-05-17T06:28:03.012Z,7680
2018-05-17T06:28:33.024Z,7980
2018-05-17T06:29:03.047Z,8533
2018-05-17T06:29:33.085Z,8727
2018-05-17T06:30:03.159Z,8543
2018-05-17T06:30:33.172Z,8153
2018-05-17T06:31:03.181Z,8010
2018-05-17T06:31:33.214Z,7463
2018-05-17T06:32:03.274Z,6800
2018-05-17T06:32:33.219Z,6277
2018-05-17T06:33:03.325Z,6000
2018-05-17T06:33:33.349Z,5663
2018-05-17T06:34:03.383Z,5420
2018-05-17T06:34:33.378Z,5323
2018-05-17T06:35:03.372Z,5010
2018-05-17T06:35:33.447Z,4733
2018-05-17T06:36:03.528Z,4853
2018-05-17T06:36:33.512Z,4863
2018-05-17T06:37:03.575Z,5060
2018-05-17T06:37:33.644Z,5077
2018-05-17T06:38:03.642Z,4993
2018-05-17T06:38:33.691Z,4953
2018-05-17T06:39:03.679Z,4770
2018-05-17T06:39:33.695Z,4743
2018-05-17T06:40:03.753Z,4870
2018-05-17T06:40:33.804Z,5313
2018-05-17T06:41:03.805Z,5990
2018-05-17T06:41:33.813Z,6827
2018-05-17T06:42:03.804Z,7747
2018-05-17T06:42:33.869Z,8603
2018-05-17T06:43:03.908Z,9440
2018-05-17T06:43:33.941Z,10070
2018-05-17T06:44:03.970Z,10527
2018-05-17T06:44:34.097Z,10350
2018-05-17T06:45:04.034Z,10110
2018-05-17T06:45:34.047Z,10043
2018-05-17T06:46:04.061Z,9643
2018-05-17T06:46:34.133Z,8813
2018-05-17T06:47:04.178Z,8223
2018-05-17T06:47:34.208Z,7713
2018-05-17T06:48:04.221Z,6960
2018-05-17T06:48:34.235Z,6190
2018-05-17T06:49:04.281Z,5870
2018-05-17T06:49:34.305Z,6057
2018-05-17T06:50:04.357Z,6313
2018-05-17T06:50:34.355Z,5900
2018-05-17T06:51:04.452Z,5543
2018-05-17T06:51:34.410Z,5180
2018-05-17T06:52:04.464Z,5153
2018-05-17T06:52:34.471Z,5200
2018-05-17T06:53:04.528Z,5270
2018-05-17T06:53:34.521Z,5157
2018-05-17T06:54:04.542Z,5137
2018-05-17T06:54:34.619Z,4773
2018-05-17T06:55:04.603Z,4437
2018-05-17T06:55:34.688Z,4507
2018-05-17T06:56:04.744Z,4617
2018-05-17T06:56:34.696Z,4840
2018-05-17T06:57:04.748Z,5180
2018-05-17T06:57:34.777Z,5457
2018-05-17T06:58:04.781Z,5510
2018-05-17T06:58:34.812Z,5617
2018-05-17T06:59:04.894Z,5343
2018-05-17T06:59:34.879Z,4967
2018-05-17T07:00:04.903Z,5227
2018-05-17T07:00:35.016Z,5373
2018-05-17T07:01:05.057Z,4973
2018-05-17T07:01:35.035Z,4953
2018-05-17T07:02:05.027Z,5023
2018-05-17T07:02:35.098Z,5080
2018-05-17T07:03:05.092Z,5243
2018-05-17T07:03:35.128Z,5647
2018-05-17T07:04:05.158Z,6237
2018-05-17T07:04:35.221Z,6443
2018-05-17T07:05:05.216Z,6537
2018-05-17T07:05:35.253Z,6387
2018-05-17T07:06:05.302Z,6450
2018-05-17T07:06:35.344Z,6633
2018-05-17T07:07:05.372Z,6387
2018-05-17T07:07:35.438Z,6180
2018-05-17T07:08:05.434Z,5890
2018-05-17T07:08:35.464Z,5547
2018-05-17T07:09:05.503Z,5247
2018-05-17T07:09:35.583Z,5190
2018-05-17T07:10:05.549Z,5423
2018-05-17T07:10:35.640Z,5517
2018-05-17T07:11:05.686Z,5317
2018-05-17T07:11:35.650Z,5133
2018-05-17T07:12:05.669Z,5030
2018-05-17T07:12:35.712Z,5007
2018-05-17T07:13:05.769Z,5057
2018-05-17T07:13:35.761Z,5313
2018-05-17T07:14:05.798Z,5507
2018-05-17T07:14:35.860Z,5820
2018-05-17T07:15:05.897Z,6390
2018-05-17T07:15:35.943Z,6623
2018-05-17T07:16:06.016Z,6697
2018-05-17T07:16:35.951Z,6597
2018-05-17T07:17:05.988Z,6530
2018-05-17T07:17:35.984Z,6767
2018-05-17T07:18:06.235Z,6917
2018-05-17T07:18:36.403Z,7027
2018-05-17T07:19:06.108Z,6990
2018-05-17T07:19:36.173Z,7303
2018-05-17T07:20:06.199Z,7143
2018-05-17T07:20:36.194Z,7280
2018-05-17T07:21:06.280Z,7327
2018-05-17T07:21:36.284Z,7467
2018-05-17T07:22:06.267Z,7907
2018-05-17T07:22:36.358Z,7860
2018-05-17T07:23:06.324Z,7513
2018-05-17T07:23:36.413Z,7360
2018-05-17T07:24:06.470Z,7413
2018-05-17T07:24:36.489Z,7440
2018-05-17T07:25:06.478Z,7290
2018-05-17T07:25:36.542Z,7317
2018-05-17T07:26:06.593Z,7040
2018-05-17T07:26:36.577Z,7193
2018-05-17T07:27:06.628Z,7093
2018-05-17T07:27:36.667Z,7370
2018-05-17T07:28:06.653Z,8073
2018-05-17T07:28:36.659Z,8190
2018-05-17T07:29:06.716Z,7763
2018-05-17T07:29:36.801Z,7867
2018-05-17T07:30:06.818Z,7667
2018-05-17T07:30:36.861Z,8010
2018-05-17T07:31:06.844Z,7717
2018-05-17T07:31:36.898Z,7383
2018-05-17T07:32:06.894Z,7477
2018-05-17T07:32:36.958Z,7877
2018-05-17T07:33:07.006Z,7917
2018-05-17T07:33:37.030Z,7617
2018-05-17T07:34:07.059Z,7493
2018-05-17T07:34:37.109Z,7780
2018-05-17T07:35:07.140Z,8033
2018-05-17T07:35:37.154Z,8413
2018-05-17T07:36:07.189Z,8617
2018-05-17T07:36:37.208Z,8400
2018-05-17T07:37:07.254Z,8287
2018-05-17T07:37:37.264Z,8197
2018-05-17T07:38:07.306Z,7990
2018-05-17T07:38:37.326Z,7547
2018-05-17T07:39:07.383Z,7553
2018-05-17T07:39:37.387Z,8120
2018-05-17T07:40:07.456Z,8503
2018-05-17T07:40:37.418Z,8843
2018-05-17T07:41:07.538Z,10257
2018-05-17T07:41:37.500Z,11620
2018-05-17T07:42:07.513Z,12300
2018-05-17T07:42:37.573Z,12643
2018-05-17T07:43:07.589Z,14280
2018-05-17T07:43:37.635Z,14960
2018-05-17T07:44:07.654Z,16433
2018-05-17T07:44:37.668Z,15317
2018-05-17T07:45:07.973Z,14843
2018-05-17T07:45:37.947Z,13013
2018-05-17T07:46:08.257Z,11827
2018-05-17T07:46:38.341Z,14173
2018-05-17T07:47:08.400Z,15670
2018-05-17T07:47:38.324Z,16727
2018-05-17T07:48:08.391Z,16607
2018-05-17T07:48:38.453Z,16220
2018-05-17T07:49:08.449Z,17123
2018-05-17T07:49:38.488Z,16237
2018-05-17T07:50:08.539Z,14427
2018-05-17T07:50:38.563Z,14897
2018-05-17T07:51:08.572Z,14770
2018-05-17T07:51:38.633Z,14940
2018-05-17T07:52:08.670Z,16767
2018-05-17T07:52:38.672Z,17370
2018-05-17T07:53:08.698Z,16100
2018-05-17T07:53:38.687Z,16523
2018-05-17T07:54:08.725Z,17920
2018-05-17T07:54:38.760Z,18093
2018-05-17T07:55:08.829Z,19197
2018-05-17T07:55:38.984Z,18040
2018-05-17T07:56:08.897Z,15767
2018-05-17T07:56:38.954Z,17967
2018-05-17T07:57:08.947Z,16017
2018-05-17T07:57:39.007Z,16797
2018-05-17T07:58:09.014Z,16837
2018-05-17T07:58:39.044Z,17433
2018-05-17T07:59:09.081Z,17173
2018-05-17T07:59:39.110Z,16053
2018-05-17T08:00:09.150Z,16747
2018-05-17T08:00:39.219Z,18233
2018-05-17T08:01:09.203Z,18033
2018-05-17T08:01:39.221Z,17970
2018-05-17T08:02:09.265Z,18477
2018-05-17T08:02:39.251Z,19440
2018-05-17T08:03:09.325Z,19957
2018-05-17T08:03:39.375Z,21230
2018-05-17T08:04:09.386Z,20227
2018-05-17T08:04:39.409Z,20373
2018-05-17T08:05:09.445Z,21350
2018-05-17T08:05:39.523Z,20517
2018-05-17T08:06:09.477Z,19997
2018-05-17T08:06:39.574Z,21330
2018-05-17T08:07:09.566Z,20707
2018-05-17T08:07:39.588Z,21650
2018-05-17T08:08:09.632Z,23413
2018-05-17T08:08:39.653Z,19820
2018-05-17T08:09:09.690Z,19397
2018-05-17T08:09:39.720Z,19197
2018-05-17T08:10:09.753Z,20120
2018-05-17T08:10:39.833Z,19933
2018-05-17T08:11:09.810Z,20337
2018-05-17T08:11:39.845Z,21907
2018-05-17T08:12:09.872Z,19880
2018-05-17T08:12:39.937Z,19897
2018-05-17T08:13:09.932Z,21097
2018-05-17T08:13:39.969Z,19670
2018-05-17T08:14:10.025Z,17657
2018-05-17T08:14:40.024Z,16777
2018-05-17T08:15:10.063Z,17780
2018-05-17T08:15:40.209Z,19750
2018-05-17T08:16:10.118Z,19287
2018-05-17T08:16:40.145Z,19007
2018-05-17T08:17:10.177Z,18097
2018-05-17T08:17:40.214Z,16987
2018-05-17T08:18:10.236Z,17220
2018-05-17T08:18:40.292Z,16590
2018-05-17T08:19:10.298Z,15770
2018-05-17T08:19:40.344Z,14993
2018-05-17T08:20:10.369Z,15363
2018-05-17T08:20:40.419Z,16760
2018-05-17T08:21:10.437Z,16700
2018-05-17T08:21:40.432Z,16347
2018-05-17T08:22:10.458Z,17307
2018-05-17T08:22:40.481Z,18520
2018-05-17T08:23:10.522Z,19263
2018-05-17T08:23:40.574Z,18700
2018-05-17T08:24:10.579Z,17913
2018-05-17T08:24:40.603Z,18213
2018-05-17T08:25:10.693Z,18847
2018-05-17T08:25:40.718Z,17587
2018-05-17T08:26:10.735Z,16983
2018-05-17T08:26:40.793Z,17017
2018-05-17T08:27:10.770Z,17213
2018-05-17T08:27:40.790Z,17933
2018-05-17T08:28:10.856Z,18230
2018-05-17T08:28:41.054Z,18193
2018-05-17T08:29:10.884Z,18347
2018-05-17T08:29:40.985Z,17650
2018-05-17T08:30:10.943Z,17577
2018-05-17T08:30:40.988Z,17773
2018-05-17T08:31:11.013Z,17730
2018-05-17T08:31:41.152Z,18907
2018-05-17T08:32:11.104Z,20387
2018-05-17T08:32:41.134Z,21443
2018-05-17T08:33:11.129Z,20157
2018-05-17T08:33:41.230Z,20503
2018-05-17T08:34:11.194Z,20543
2018-05-17T08:34:41.319Z,20540
2018-05-17T08:35:11.281Z,21147
2018-05-17T08:35:41.303Z,20363
2018-05-17T08:36:11.456Z,20583
2018-05-17T08:36:41.509Z,21043
2018-05-17T08:37:11.407Z,21697
2018-05-17T08:37:41.512Z,21307
2018-05-17T08:38:11.505Z,21693
2018-05-17T08:38:41.541Z,20960
2018-05-17T08:39:11.588Z,20773
2018-05-17T08:39:41.616Z,20457
2018-05-17T08:40:11.604Z,20020
2018-05-17T08:40:41.641Z,20517
2018-05-17T08:41:11.661Z,20337
2018-05-17T08:41:41.679Z,20783
2018-05-17T08:42:11.714Z,20580
2018-05-17T08:42:41.853Z,20563
2018-05-17T08:43:11.777Z,20420
2018-05-17T08:43:41.806Z,20907
2018-05-17T08:44:11.815Z,20990
2018-05-17T08:44:41.841Z,21877
2018-05-17T08:45:11.921Z,22297
2018-05-17T08:45:41.977Z,22220
2018-05-17T08:46:11.976Z,23053
2018-05-17T08:46:42.061Z,23783
2018-05-17T08:47:12.061Z,26060
2018-05-17T08:47:42.087Z,25120
2018-05-17T08:48:12.123Z,25220
2018-05-17T08:48:42.131Z,26117
2018-05-17T08:49:12.138Z,25857
2018-05-17T08:49:42.193Z,25620
2018-05-17T08:50:12.254Z,24507
2018-05-17T08:50:42.261Z,24133
2018-05-17T08:51:12.320Z,24937
2018-05-17T08:51:42.325Z,25597
2018-05-17T08:52:12.371Z,27180
2018-05-17T08:52:42.412Z,27650
2018-05-17T08:53:12.451Z,26883
2018-05-17T08:53:42.416Z,25133
2018-05-17T08:54:12.437Z,23857
2018-05-17T08:54:42.505Z,24977
2018-05-17T08:55:12.565Z,24690
2018-05-17T08:55:42.572Z,24090
2018-05-17T08:56:12.556Z,24890
2018-05-17T08:56:42.636Z,23627
2018-05-17T08:57:12.707Z,23383
2018-05-17T08:57:42.772Z,22253
2018-05-17T08:58:12.721Z,22550
2018-05-17T08:58:42.744Z,23487
2018-05-17T08:59:12.794Z,24420
2018-05-17T08:59:42.816Z,23690
2018-05-17T09:00:12.852Z,24110
2018-05-17T09:00:42.886Z,25177
2018-05-17T09:01:12.921Z,27887
2018-05-17T09:01:42.938Z,39053
2018-05-17T09:02:12.978Z,23837
2018-05-17T09:02:43.022Z,24030
2018-05-17T09:03:13.033Z,24207
2018-05-17T09:03:43.027Z,23377
2018-05-17T09:04:13.119Z,24673
2018-05-17T09:04:43.170Z,27250
2018-05-17T09:05:13.155Z,31430
2018-05-17T09:05:43.182Z,38393
2018-05-17T09:06:13.313Z,39770
2018-05-17T09:06:43.234Z,30237
2018-05-17T09:07:13.272Z,26323
2018-05-17T09:07:43.328Z,25503
2018-05-17T09:08:13.337Z,25767
2018-05-17T09:08:43.346Z,25387
2018-05-17T09:09:13.408Z,28133
2018-05-17T09:09:43.440Z,33020
2018-05-17T09:10:13.466Z,26670
2018-05-17T09:10:43.488Z,25827
2018-05-17T09:11:13.540Z,27630
2018-05-17T09:11:43.565Z,28373
2018-05-17T09:12:13.560Z,26797
2018-05-17T09:12:43.661Z,27363
2018-05-17T09:13:13.621Z,27503
2018-05-17T09:13:43.710Z,26160
2018-05-17T09:14:13.671Z,26533
2018-05-17T09:14:43.713Z,29793
2018-05-17T09:15:13.746Z,37573
2018-05-17T09:15:43.751Z,28303
2018-05-17T09:16:13.784Z,29320
2018-05-17T09:16:43.809Z,28940
2018-05-17T09:17:13.870Z,27257
2018-05-17T09:17:44.139Z,26890
2018-05-17T09:18:13.904Z,27223
2018-05-17T09:18:43.939Z,26600
2018-05-17T09:19:13.988Z,28257
2018-05-17T09:19:44.010Z,32063
2018-05-17T09:20:14.050Z,29603
2018-05-17T09:20:44.120Z,32193
2018-05-17T09:21:14.095Z,31827
2018-05-17T09:21:44.164Z,28597
2018-05-17T09:22:14.193Z,31780
2018-05-17T09:22:44.217Z,28273
2018-05-17T09:23:14.219Z,33860
2018-05-17T09:23:44.287Z,42707
2018-05-17T09:24:14.346Z,35587
2018-05-17T09:24:44.335Z,28103
2018-05-17T09:25:14.385Z,26150
2018-05-17T09:25:44.396Z,27360
2018-05-17T09:26:14.439Z,28663
2018-05-17T09:26:44.471Z,29227
2018-05-17T09:27:14.496Z,27590
2018-05-17T09:27:44.543Z,25883
2018-05-17T09:28:14.588Z,26010
2018-05-17T09:28:44.629Z,29313
2018-05-17T09:29:14.709Z,35297
2018-05-17T09:29:44.656Z,27143
2018-05-17T09:30:14.694Z,29370
2018-05-17T09:30:44.698Z,43110
2018-05-17T09:31:14.702Z,31623
2018-05-17T09:31:44.782Z,57640
2018-05-17T09:32:14.805Z,32140
2018-05-17T09:32:44.847Z,30140
2018-05-17T09:33:14.904Z,29380
2018-05-17T09:33:44.904Z,29310
2018-05-17T09:34:14.959Z,30630
2018-05-17T09:34:44.945Z,32140
2018-05-17T09:35:15.007Z,33253
2018-05-17T09:35:45.728Z,39023
2018-05-17T09:36:15.098Z,36813
2018-05-17T09:36:45.109Z,34857
2018-05-17T09:37:15.127Z,33997
2018-05-17T09:37:45.178Z,34593
2018-05-17T09:38:15.217Z,48310
2018-05-17T09:38:45.257Z,31190
2018-05-17T09:39:15.224Z,29483
2018-05-17T09:39:45.323Z,29203
2018-05-17T09:40:15.298Z,30260
2018-05-17T09:40:45.384Z,35510
2018-05-17T09:41:15.383Z,32427
2018-05-17T09:41:45.410Z,33583
2018-05-17T09:42:15.416Z,37860
2018-05-17T09:42:45.457Z,33587
2018-05-17T09:43:15.553Z,33230
2018-05-17T09:43:45.543Z,35233
2018-05-17T09:44:15.530Z,30497
2018-05-17T09:44:45.633Z,30883
2018-05-17T09:45:15.635Z,33883
2018-05-17T09:45:45.658Z,42807
2018-05-17T09:46:15.711Z,52580
2018-05-17T09:46:45.718Z,43230
2018-05-17T09:47:15.686Z,29190
2018-05-17T09:47:45.779Z,41037
2018-05-17T09:48:15.872Z,32957
2018-05-17T09:48:45.831Z,28647
2018-05-17T09:49:15.864Z,52323